Thunder radar more information blitzortung!


Radar de pluja more information rain snow radar


Visita la nostra xarxa de llocs de meteo:

Template documentation
and downloads

And another site



No particular awareness of the weather is required.    There are no Weather-warnings

Pagina Historial Weather Underground text

Diari Resum Agost 29, 2017 Unitats:  Mètric    Imperial   Tant
« Previous Dia
SegĂźent Dia »
Diari Setmana Mensual Anual Personalitzada
  Maxima: Minima: Media:
Temperatura: -17.8 °C -6.1 °C -2.9 °C
Punt de rosada: -17.8 °C -11 °C -8.8 °C
Humitat: Humidity % 35 % 54 %
Wind Speed: 0 km/h 0 km/h 9.8 km/h
RĂ fegues de vent: 0 km/h - -
Vent:- - SW
Pression baro: 0 hPa 34222.3 hPa -
Precipitacions: 0 mm    
Historical Graphs
 
 
Dades de taula per Agost 29, 2017
Temps Temperatura Punt de rosada Pression baro Vent Wind Speed RĂ fegues de vent Humitat Rainfall Rate (Hourly)
-17.8 °C -17.8 °C 0 hPa Calm     Humidity % 0 mm
00:03 -3.6 °C -7.7 °C 34293.4 hPa SW 9 km/h 9 km/h 64 % 0 mm
00:05 -4.9 °C -7.5 °C 34256.2 hPa WSW 2.6 km/h 7.7 km/h 75 % 0 mm
00:15 -4.9 °C -7.6 °C 34256.2 hPa WSW 5.1 km/h 5.1 km/h 74 % 0 mm
00:25 -4.8 °C -7.6 °C 34256.2 hPa WSW 5.1 km/h 7.7 km/h 73 % 0 mm
00:35 -4.7 °C -7.5 °C 34256.2 hPa West 5.1 km/h 10.3 km/h 73 % 0 mm
00:45 -4.7 °C -7.6 °C 34222.3 hPa West 12.9 km/h 12.9 km/h 72 % 0 mm
00:55 -4.6 °C -7.6 °C 34222.3 hPa West 7.7 km/h 10.3 km/h 72 % 0 mm
01:05 -4.7 °C -7.6 °C 34222.3 hPa WSW 5.1 km/h 7.7 km/h 72 % 0 mm
01:25 -4.7 °C -7.7 °C 34222.3 hPa WSW 2.6 km/h 7.7 km/h 72 % 0 mm
01:35 -4.8 °C -7.8 °C 34222.3 hPa Calm   5.1 km/h 72 % 0 mm
01:45 -4.9 °C -7.8 °C 34222.3 hPa WSW 2.6 km/h 5.1 km/h 72 % 0 mm
01:55 -4.9 °C -7.9 °C 34222.3 hPa Calm   2.6 km/h 72 % 0 mm
02:05 -5.1 °C -8 °C 34256.2 hPa WSW 2.6 km/h 5.1 km/h 72 % 0 mm
02:15 -5.2 °C -8 °C 34222.3 hPa SW 2.6 km/h 5.1 km/h 73 % 0 mm
02:25 -5.2 °C -8.1 °C 34222.3 hPa SW 2.6 km/h 5.1 km/h 73 % 0 mm
02:35 -5.3 °C -8.1 °C 34256.2 hPa Calm   5.1 km/h 73 % 0 mm
02:45 -5.3 °C -8.2 °C 34256.2 hPa Calm   5.1 km/h 73 % 0 mm
02:55 -5.4 °C -8.3 °C 34256.2 hPa SW 5.1 km/h 5.1 km/h 73 % 0 mm
03:05 -5.5 °C -8.2 °C 34256.2 hPa SW 2.6 km/h 7.7 km/h 74 % 0 mm
03:15 -5.6 °C -8.2 °C 34256.2 hPa SW 2.6 km/h 7.7 km/h 75 % 0 mm
03:25 -5.7 °C -8.3 °C 34256.2 hPa WSW 2.6 km/h 5.1 km/h 75 % 0 mm
03:35 -5.8 °C -8.3 °C 34256.2 hPa WSW 2.6 km/h 5.1 km/h 75 % 0 mm
03:45 -5.7 °C -8.3 °C 34256.2 hPa SW 2.6 km/h 5.1 km/h 75 % 0 mm
03:55 -5.6 °C -8.1 °C 34256.2 hPa SW 2.6 km/h 5.1 km/h 76 % 0 mm
04:05 -5.4 °C -8.2 °C 34256.2 hPa Calm   7.7 km/h 74 % 0 mm
04:15 -5.4 °C -8.1 °C 34256.2 hPa WNW 2.6 km/h 5.1 km/h 74 % 0 mm
04:25 -5.3 °C -8 °C 34256.2 hPa SW 2.6 km/h 5.1 km/h 74 % 0 mm
04:35 -5.1 °C -7.9 °C 34256.2 hPa SW 2.6 km/h 5.1 km/h 73 % 0 mm
04:45 -4.8 °C -7.7 °C 34256.2 hPa SW 2.6 km/h 5.1 km/h 72 % 0 mm
04:55 -4.6 °C -7.7 °C 34256.2 hPa SW 2.6 km/h 5.1 km/h 71 % 0 mm
09:58 -3.3 °C -7.6 °C 34256.2 hPa SSE 7.6 km/h 7.6 km/h 63 % 0 mm
09:59 -3.2 °C -7.4 °C 34256.2 hPa SSE 9 km/h 9 km/h 63 % 0 mm
10:01 -3.2 °C -7.4 °C 34256.2 hPa SSE 5.1 km/h 5.1 km/h 63 % 0 mm
10:06 -3.1 °C -7.4 °C 34256.2 hPa ESE 9 km/h 9 km/h 62 % 0 mm
10:11 -2.7 °C -7.3 °C 34256.2 hPa SSE 6 km/h 6 km/h 61 % 0 mm
10:21 -2.9 °C -7.4 °C 34256.2 hPa ENE 6 km/h 6 km/h 61 % 0 mm
10:26 -3.2 °C -7.7 °C 34256.2 hPa East 9 km/h 9 km/h 61 % 0 mm
10:31 -3.2 °C -7.7 °C 34256.2 hPa NE 6 km/h 6 km/h 61 % 0 mm
10:36 -3.2 °C -7.7 °C 34256.2 hPa NE 6 km/h 6 km/h 61 % 0 mm
10:41 -3 °C -7.6 °C 34256.2 hPa SW 5.1 km/h 5.1 km/h 61 % 0 mm
10:46 -2.8 °C -7.4 °C 34256.2 hPa WNW 6 km/h 6 km/h 61 % 0 mm
10:51 -2.7 °C -7.4 °C 34256.2 hPa ENE 9.8 km/h 9.8 km/h 60 % 0 mm
10:56 -2.4 °C -7.3 °C 34256.2 hPa NNE 6 km/h 6 km/h 59 % 0 mm
11:01 -2.3 °C -7.5 °C 34256.2 hPa East 6.3 km/h 6.3 km/h 57 % 0 mm
11:06 -2.3 °C -7.3 °C 34256.2 hPa ESE 3.1 km/h 3.1 km/h 58 % 0 mm
11:11 -2.2 °C -7.3 °C 34256.2 hPa ENE 11.9 km/h 11.9 km/h 57 % 0 mm
11:16 -2.2 °C -7.6 °C 34256.2 hPa ESE 6 km/h 6 km/h 56 % 0 mm
11:21 -1.9 °C -7.1 °C 34256.2 hPa SW 3.1 km/h 3.1 km/h 57 % 0 mm
11:26 -1.6 °C -7.1 °C 34256.2 hPa West 9 km/h 9 km/h 55 % 0 mm
11:31 -1.8 °C -7.2 °C 34256.2 hPa SW 11.9 km/h 11.9 km/h 56 % 0 mm
11:36 -1.7 °C -7.6 °C 34256.2 hPa SE 6 km/h 6 km/h 53 % 0 mm
11:41 -1.2 °C -7.3 °C 34256.2 hPa SW 9.3 km/h 9.3 km/h 52 % 0 mm
11:42 -1.2 °C -7.2 °C 34256.2 hPa South 9 km/h 9 km/h 52 % 0 mm
11:47 -0.9 °C -7.2 °C 34256.2 hPa SSW 6 km/h 6 km/h 51 % 0 mm
11:52 -1.1 °C -7.3 °C 34256.2 hPa South 11.9 km/h 11.9 km/h 51 % 0 mm
12:02 -1.1 °C -7.4 °C 34293.4 hPa WSW 9 km/h 9 km/h 50 % 0 mm
12:07 -1.1 °C -7.4 °C 34293.4 hPa SSW 9 km/h 9 km/h 50 % 0 mm
12:12 -1 °C -7.6 °C 34256.2 hPa NW 4.2 km/h 4.2 km/h 49 % 0 mm
12:17 -1.1 °C -7.7 °C 34256.2 hPa West 12.7 km/h 12.7 km/h 49 % 0 mm
12:22 -1.1 °C -7.9 °C 34256.2 hPa South 6 km/h 6 km/h 48 % 0 mm
12:27 -0.9 °C -7.7 °C 34256.2 hPa SW 6 km/h 6 km/h 48 % 0 mm
12:32 -0.8 °C -7.7 °C 34256.2 hPa West 6 km/h 6 km/h 48 % 0 mm
12:37 -0.6 °C -7.4 °C 34256.2 hPa SW 9 km/h 9 km/h 48 % 0 mm
12:38 -0.6 °C -7.6 °C 34256.2 hPa South 4.2 km/h 4.2 km/h 47 % 0 mm
12:43 -0.6 °C -7.4 °C 34293.4 hPa WSW 9 km/h 9 km/h 48 % 0 mm
12:48 -0.5 °C -7.7 °C 34293.4 hPa SSW 6 km/h 6 km/h 46 % 0 mm
12:53 -0.6 °C -7.6 °C 34293.4 hPa WSW 12.2 km/h 12.2 km/h 47 % 0 mm
12:58 -0.6 °C -7.6 °C 34256.2 hPa WSW 11.9 km/h 11.9 km/h 47 % 0 mm
13:03 -0.4 °C -7.7 °C 34256.2 hPa SW 9 km/h 9 km/h 46 % 0 mm
13:08 -0.4 °C -7.8 °C 34256.2 hPa ESE 6 km/h 6.8 km/h 45 % 0 mm
13:13 0.1 °C -7.3 °C 34256.2 hPa South 9 km/h 9 km/h 45 % 0 mm
13:18 0 °C -7.7 °C 34256.2 hPa SSE 11.9 km/h 11.9 km/h 44 % 0 mm
13:23 0.1 °C -7.3 °C 34256.2 hPa SW 15.6 km/h 15.6 km/h 45 % 0 mm
13:28 0.2 °C -7.5 °C 34222.3 hPa SSW 9 km/h 9 km/h 44 % 0 mm
13:33 0.2 °C -7.4 °C 34222.3 hPa WSW 9.8 km/h 9.8 km/h 44 % 0 mm
13:38 0.1 °C -7.6 °C 34222.3 hPa WSW 15 km/h 15 km/h 44 % 0 mm
13:43 -0.2 °C -8 °C 34222.3 hPa South 15 km/h 15 km/h 43 % 0 mm
13:48 0.1 °C -7.8 °C 34222.3 hPa South 23.8 km/h 23.8 km/h 43 % 0 mm
13:53 0.5 °C -7.4 °C 34222.3 hPa South 15.3 km/h 15.3 km/h 43 % 0 mm
13:58 0.7 °C -7.9 °C 34256.2 hPa SE 15 km/h 15 km/h 40 % 0 mm
14:03 0.4 °C -8.4 °C 34256.2 hPa SW 15 km/h 15.3 km/h 39 % 0 mm
14:08 0.4 °C -8.3 °C 34256.2 hPa SW 20.9 km/h 20.9 km/h 39 % 0 mm
14:13 0.3 °C -8.7 °C 34256.2 hPa West 29.8 km/h 29.8 km/h 38 % 0 mm
14:18 -0.1 °C -9.2 °C 34256.2 hPa WSW 35.7 km/h 35.7 km/h 37 % 0 mm
14:23 -0.2 °C -9.4 °C 34256.2 hPa SSW 23.8 km/h 23.8 km/h 37 % 0 mm
14:28 -0.2 °C -9.4 °C 34256.2 hPa South 9 km/h 9 km/h 37 % 0 mm
14:33 -0.2 °C -9.1 °C 34256.2 hPa SSW 11.9 km/h 11.9 km/h 38 % 0 mm
14:38 -0.1 °C -9.3 °C 34256.2 hPa SSW 10.3 km/h 10.3 km/h 37 % 0 mm
14:43 -0.2 °C -9.3 °C 34256.2 hPa SW 17.9 km/h 17.9 km/h 37 % 0 mm
14:48 -0.2 °C -9.4 °C 34256.2 hPa ESE 16.6 km/h 16.6 km/h 37 % 0 mm
14:53 -0.2 °C -9.4 °C 34256.2 hPa SW 11.9 km/h 11.9 km/h 37 % 0 mm
14:58 -0.4 °C -9.5 °C 34293.4 hPa SSW 23.8 km/h 23.8 km/h 37 % 0 mm
15:03 -0.5 °C -9.8 °C 34293.4 hPa WSW 20.9 km/h 20.9 km/h 36 % 0 mm
15:08 -0.4 °C -9.8 °C 34293.4 hPa SSW 15 km/h 15 km/h 36 % 0 mm
15:13 -0.5 °C -9.8 °C 34293.4 hPa SW 16.6 km/h 16.6 km/h 36 % 0 mm
15:18 -0.4 °C -9.8 °C 34293.4 hPa SSW 17.9 km/h 17.9 km/h 36 % 0 mm
15:23 -0.4 °C -9.8 °C 34293.4 hPa SW 20.9 km/h 20.9 km/h 36 % 0 mm
15:28 -0.4 °C -10 °C 34293.4 hPa WSW 17.9 km/h 17.9 km/h 35 % 0 mm
15:33 -0.5 °C -9.8 °C 34293.4 hPa SSW 32.8 km/h 32.8 km/h 36 % 0 mm
15:38 -0.6 °C -9.5 °C 34293.4 hPa SSW 15.3 km/h 15.3 km/h 38 % 0 mm
15:43 -0.7 °C -9.3 °C 34293.4 hPa South 17.9 km/h 17.9 km/h 39 % 0 mm
15:48 -0.8 °C -9.2 °C 34293.4 hPa SSW 20.9 km/h 20.9 km/h 40 % 0 mm
15:53 -0.8 °C -9.2 °C 34293.4 hPa SSW 17.9 km/h 17.9 km/h 40 % 0 mm
15:58 -0.9 °C -9.3 °C 34293.4 hPa WSW 15 km/h 15 km/h 40 % 0 mm
16:03 -0.8 °C -9 °C 34293.4 hPa WSW 16.1 km/h 16.1 km/h 41 % 0 mm
16:08 -1 °C -9.4 °C 34293.4 hPa SSW 20.9 km/h 20.9 km/h 40 % 0 mm
16:13 -1.1 °C -9.5 °C 34293.4 hPa WSW 17.9 km/h 17.9 km/h 40 % 0 mm
16:18 -1.2 °C -9.4 °C 34293.4 hPa WSW 20.9 km/h 20.9 km/h 41 % 0 mm
16:23 -1.3 °C -9.4 °C 34293.4 hPa SSE 16.6 km/h 16.6 km/h 41 % 0 mm
16:28 -1.3 °C -9.3 °C 34256.2 hPa SSW 15 km/h 15 km/h 42 % 0 mm
16:33 -1.4 °C -9.3 °C 34256.2 hPa SW 11.9 km/h 11.9 km/h 42 % 0 mm
16:34 -1.4 °C -9.3 °C 34256.2 hPa WSW 16.6 km/h 16.6 km/h 42 % 0 mm
16:39 -1.5 °C -9.4 °C 34256.2 hPa WSW 26.9 km/h 26.9 km/h 42 % 0 mm
16:44 -1.6 °C -9.5 °C 34256.2 hPa WSW 11.9 km/h 11.9 km/h 42 % 0 mm
16:49 -1.6 °C -9.5 °C 34256.2 hPa SW 15.3 km/h 15.3 km/h 42 % 0 mm
16:54 -1.7 °C -9.6 °C 34256.2 hPa WSW 26.9 km/h 26.9 km/h 42 % 0 mm
16:59 -1.7 °C -9.4 °C 34256.2 hPa WSW 15 km/h 15 km/h 43 % 0 mm
17:04 -1.7 °C -9.4 °C 34256.2 hPa South 15 km/h 15 km/h 43 % 0 mm
17:09 -1.7 °C -9.2 °C 34256.2 hPa SSW 15 km/h 15.3 km/h 44 % 0 mm
17:14 -1.8 °C -9.3 °C 34256.2 hPa West 15 km/h 15 km/h 44 % 0 mm
17:19 -1.8 °C -9.3 °C 34256.2 hPa SSW 17.9 km/h 17.9 km/h 44 % 0 mm
17:24 -1.9 °C -9.2 °C 34293.4 hPa WSW 26.9 km/h 26.9 km/h 45 % 0 mm
17:29 -2.2 °C -9.2 °C 34293.4 hPa SW 32.8 km/h 32.8 km/h 46 % 0 mm
17:34 -2.4 °C -8.9 °C 34293.4 hPa SW 28.2 km/h 28.2 km/h 49 % 0 mm
17:39 -2.7 °C -8.8 °C 34327.3 hPa SW 26.9 km/h 26.9 km/h 51 % 0 mm
17:44 -3.1 °C -8.6 °C 34327.3 hPa South 17.9 km/h 17.9 km/h 55 % 0 mm
17:49 -3.4 °C -8.4 °C 34327.3 hPa SW 26.9 km/h 26.9 km/h 58 % 0 mm
17:54 -3.6 °C -8.2 °C 34327.3 hPa SW 20.3 km/h 20.3 km/h 60 % 0 mm
17:59 -3.7 °C -8 °C 34327.3 hPa WSW 17.9 km/h 17.9 km/h 62 % 0 mm
18:04 -3.7 °C -8 °C 34327.3 hPa SW 23.8 km/h 23.8 km/h 62 % 0 mm
18:09 -3.8 °C -7.8 °C 34327.3 hPa South 20.9 km/h 20.9 km/h 64 % 0 mm
18:14 -3.9 °C -8.1 °C 34327.3 hPa SW 14.5 km/h 14.5 km/h 63 % 0 mm
18:19 -3.9 °C -7.9 °C 34327.3 hPa SW 15 km/h 15 km/h 64 % 0 mm
18:24 -3.8 °C -8 °C 34327.3 hPa West 15 km/h 15 km/h 63 % 0 mm
18:29 -3.8 °C -8 °C 34327.3 hPa SW 9 km/h 9 km/h 63 % 0 mm
18:34 -3.8 °C -7.9 °C 34327.3 hPa SW 11.9 km/h 11.9 km/h 63 % 0 mm
18:39 -3.7 °C -8 °C 34293.4 hPa West 11.9 km/h 11.9 km/h 62 % 0 mm
18:44 -3.7 °C -8.2 °C 34293.4 hPa WSW 11.9 km/h 11.9 km/h 61 % 0 mm
18:49 -3.6 °C -8.2 °C 34293.4 hPa West 9 km/h 9 km/h 60 % 0 mm
18:54 -3.6 °C -8.2 °C 34293.4 hPa WSW 5.1 km/h 5.1 km/h 60 % 0 mm
18:59 -3.6 °C -8.2 °C 34293.4 hPa SW 6 km/h 6 km/h 60 % 0 mm
19:04 -3.6 °C -8.5 °C 34293.4 hPa WNW 9 km/h 9 km/h 58 % 0 mm
19:09 -3.5 °C -8.6 °C 34293.4 hPa West 6.3 km/h 6.3 km/h 57 % 0 mm
19:14 -3.4 °C -8.7 °C 34293.4 hPa West 6 km/h 6 km/h 56 % 0 mm
19:15 -3.4 °C -8.7 °C 34293.4 hPa Calm   5.1 km/h 56 % 0 mm
19:20 -3.3 °C -8.7 °C 34293.4 hPa West 3.1 km/h   55 % 0 mm
19:25 -3.3 °C -8.7 °C 34256.2 hPa SW 9.3 km/h 9.3 km/h 55 % 0 mm
19:30 -3.4 °C -8.8 °C 34256.2 hPa Calm   7.7 km/h 55 % 0 mm
19:35 -3.4 °C -8.9 °C 34256.2 hPa SW 2.6 km/h 5.1 km/h 54 % 0 mm
19:40 -3.4 °C -8.9 °C 34256.2 hPa SW 5.1 km/h 7.7 km/h 54 % 0 mm
19:45 -3.4 °C -9 °C 34256.2 hPa WSW 6 km/h 6 km/h 54 % 0 mm
19:50 -3.4 °C -9 °C 34256.2 hPa Calm     54 % 0 mm
19:55 -3.5 °C -9.1 °C 34293.4 hPa Calm     54 % 0 mm
20:00 -3.5 °C -9.1 °C 34293.4 hPa Calm     54 % 0 mm
20:05 -3.6 °C -9.1 °C 34293.4 hPa NNE 3.7 km/h   54 % 0 mm
20:10 -3.6 °C -9.3 °C 34256.2 hPa South 4.2 km/h   53 % 0 mm
20:15 -3.6 °C -9.3 °C 34256.2 hPa South 3.1 km/h 3.7 km/h 53 % 0 mm
20:20 -3.6 °C -9.2 °C 34256.2 hPa Calm     54 % 0 mm
20:25 -3.7 °C -9.2 °C 34293.4 hPa SW 6 km/h 6 km/h 54 % 0 mm
20:30 -3.7 °C -9.3 °C 34293.4 hPa SW 3.7 km/h 3.7 km/h 54 % 0 mm
20:35 -3.8 °C -9.4 °C 34293.4 hPa WSW 6 km/h 6 km/h 54 % 0 mm
20:40 -3.9 °C -9.4 °C 34293.4 hPa WSW 5.1 km/h 5.1 km/h 54 % 0 mm
20:45 -5 °C -10.6 °C 34327.3 hPa WSW 5.1 km/h 7.7 km/h 53 % 0 mm
20:50 -3.9 °C -9.3 °C 34293.4 hPa WSW 6 km/h 6 km/h 55 % 0 mm
20:55 -3.9 °C -9.3 °C 34327.3 hPa SW 6 km/h 6 km/h 55 % 0 mm
21:00 -4 °C -9.3 °C 34327.3 hPa SW 6.3 km/h 6.3 km/h 55 % 0 mm
21:05 -5.2 °C -10.7 °C 34293.4 hPa WSW 2.6 km/h 5.1 km/h 54 % 0 mm
21:10 -4.1 °C -9.3 °C 34327.3 hPa WSW 6.8 km/h 6.8 km/h 56 % 0 mm
21:15 -4.1 °C -9.3 °C 34327.3 hPa SW 6.3 km/h 6.3 km/h 56 % 0 mm
21:20 -4.1 °C -9.3 °C 34327.3 hPa SW 6.3 km/h 6.3 km/h 56 % 0 mm
21:25 -4.2 °C -9.3 °C 34327.3 hPa SW 9 km/h 9 km/h 56 % 0 mm
21:30 -4.2 °C -9.3 °C 34327.3 hPa West 6 km/h 6 km/h 56 % 0 mm
21:35 -4.2 °C -9.3 °C 34327.3 hPa WSW 6 km/h 6 km/h 56 % 0 mm
21:40 -4.2 °C -9.5 °C 34327.3 hPa WSW 6.8 km/h 6.8 km/h 55 % 0 mm
21:45 -4.2 °C -9.5 °C 34327.3 hPa Calm     55 % 0 mm
21:55 -4.1 °C -9.6 °C 34293.4 hPa SW 6 km/h 6 km/h 54 % 0 mm
22:00 -4.1 °C -9.6 °C 34293.4 hPa WSW 6.8 km/h 6.8 km/h 54 % 0 mm
22:05 -4.1 °C -9.7 °C 34293.4 hPa West 9 km/h 9 km/h 53 % 0 mm
22:10 -4 °C -9.7 °C 34327.3 hPa West 7.6 km/h 7.6 km/h 53 % 0 mm
22:15 -4.1 °C -9.9 °C 34327.3 hPa SW 8 km/h 8 km/h 52 % 0 mm
22:20 -4.1 °C -9.9 °C 34327.3 hPa SW 9 km/h 9 km/h 52 % 0 mm
22:25 -4.2 °C -10 °C 34327.3 hPa South 6.8 km/h 6.8 km/h 52 % 0 mm
22:30 -4.3 °C -9.9 °C 34327.3 hPa West 11.9 km/h 11.9 km/h 53 % 0 mm
22:35 -4.3 °C -10 °C 34327.3 hPa WSW 9 km/h 9 km/h 53 % 0 mm
22:40 -4.3 °C -9.9 °C 34327.3 hPa SW 6.3 km/h 6.3 km/h 53 % 0 mm
22:45 -4.3 °C -10 °C 34327.3 hPa SW 6 km/h 6 km/h 53 % 0 mm
22:50 -4.4 °C -10.1 °C 34327.3 hPa SW 6.3 km/h 6.3 km/h 53 % 0 mm
22:55 -4.4 °C -10.1 °C 34327.3 hPa SW 6 km/h 6 km/h 53 % 0 mm
23:00 -4.5 °C -10.2 °C 34327.3 hPa WSW 3.7 km/h 3.7 km/h 53 % 0 mm
23:01 -4.5 °C -10.2 °C 34327.3 hPa SW 6 km/h 6 km/h 53 % 0 mm
23:05 -5.6 °C -11 °C 34327.3 hPa SW 7.7 km/h 10.3 km/h 54 % 0 mm
23:06 -4.4 °C -10.1 °C 34327.3 hPa SW 9 km/h 9 km/h 53 % 0 mm
23:11 -4.6 °C -10.2 °C 34327.3 hPa SW 6 km/h 6 km/h 53 % 0 mm
23:15 -5.4 °C -11 °C 34361.1 hPa SW 7.7 km/h 12.9 km/h 53 % 0 mm
23:16 -4.7 °C -10.3 °C 34327.3 hPa WSW 6.3 km/h 6.3 km/h 53 % 0 mm
23:21 -4.7 °C -10.3 °C 34327.3 hPa WSW 3.1 km/h 3.1 km/h 53 % 0 mm
23:25 -5 °C -10.9 °C 34361.1 hPa SW 15.6 km/h 25.9 km/h 51 % 0 mm
23:26 -4.7 °C -10.3 °C 34327.3 hPa WSW 3.1 km/h   53 % 0 mm
23:31 -4.7 °C -10.5 °C 34327.3 hPa Calm     52 % 0 mm
23:35 -5.2 °C -10.8 °C 34395 hPa SW 20.8 km/h 44.1 km/h 53 % 0 mm
23:36 -4.7 °C -10.4 °C 34327.3 hPa WSW 6 km/h 6 km/h 52 % 0 mm
23:41 -4.7 °C -10.3 °C 34361.1 hPa SW 9 km/h 9 km/h 53 % 0 mm
23:45 -5.5 °C -10.6 °C 34395 hPa SW 18.2 km/h 25.9 km/h 56 % 0 mm
23:46 -4.7 °C -10.3 °C 34361.1 hPa SW 6.3 km/h 6.3 km/h 53 % 0 mm
23:51 -4.8 °C -10.4 °C 34361.1 hPa SW 6 km/h 6 km/h 53 % 0 mm
23:55 -6.1 °C -10.1 °C 34395 hPa WSW 7.7 km/h 20.8 km/h 63 % 0 mm
23:56 -4.8 °C -10.4 °C 34327.3 hPa WSW 6 km/h 6 km/h 53 % 0 mm
Meteo Sesrovires
Elogis d' Weather Underground - 1.5 mb

Guio original per  Jim McMurry - jmcmurry@mwt.net Adaptat per a la plantilla per  Wim van der Kuil - Leuven-Template.eu

Trobareu la nostra informacio del temps tambe a:

Weather Underground

AWEKAS